createdAt,value
2019-05-17T00:01:37.543Z,10.70
2019-05-17T00:04:08.303Z,10.70
2019-05-17T00:06:40.728Z,10.70
2019-05-17T00:09:11.107Z,10.70
2019-05-17T00:11:41.628Z,10.70
2019-05-17T00:14:11.947Z,10.70
2019-05-17T00:16:42.384Z,10.70
2019-05-17T00:19:12.780Z,10.70
2019-05-17T00:21:43.221Z,10.60
2019-05-17T00:24:13.663Z,10.70
2019-05-17T00:26:46.629Z,10.70
2019-05-17T00:29:17.315Z,10.70
2019-05-17T00:31:47.807Z,10.80
2019-05-17T00:34:18.168Z,10.70
2019-05-17T00:36:48.540Z,10.70
2019-05-17T00:39:18.852Z,10.60
2019-05-17T00:41:49.171Z,10.60
2019-05-17T00:44:19.647Z,10.60
2019-05-17T00:46:50.016Z,10.60
2019-05-17T00:49:20.456Z,10.60
2019-05-17T00:51:50.797Z,10.50
2019-05-17T00:54:21.312Z,10.60
2019-05-17T00:56:51.683Z,10.50
2019-05-17T00:59:22.044Z,10.50
2019-05-17T01:01:52.499Z,10.50
2019-05-17T01:04:22.952Z,10.40
2019-05-17T01:06:56.158Z,10.40
2019-05-17T01:09:27.358Z,10.40
2019-05-17T01:11:57.820Z,10.40
2019-05-17T01:14:28.181Z,10.50
2019-05-17T01:16:58.492Z,10.50
2019-05-17T01:19:28.824Z,10.50
2019-05-17T01:21:59.328Z,10.40
2019-05-17T01:24:29.627Z,10.40
2019-05-17T01:26:59.929Z,10.50
2019-05-17T01:29:30.208Z,10.50
2019-05-17T01:32:00.945Z,10.50
2019-05-17T01:34:31.312Z,10.50
2019-05-17T01:37:06.657Z,10.40
2019-05-17T01:39:37.641Z,10.40
2019-05-17T01:42:08.252Z,10.40
2019-05-17T01:44:38.592Z,10.40
2019-05-17T01:47:09.101Z,10.40
2019-05-17T01:49:39.463Z,10.40
2019-05-17T01:52:09.767Z,10.30
2019-05-17T01:54:40.077Z,10.20
2019-05-17T01:57:10.476Z,10.30
2019-05-17T01:59:40.841Z,10.30
2019-05-17T02:02:16.299Z,10.30
2019-05-17T02:04:46.819Z,10.20
2019-05-17T02:07:17.327Z,10.30
2019-05-17T02:09:47.849Z,10.20
2019-05-17T02:12:18.266Z,10.20
2019-05-17T02:14:48.708Z,10.20
2019-05-17T02:17:19.073Z,10.20
2019-05-17T02:19:49.576Z,10.20
2019-05-17T02:22:20.004Z,10.20
2019-05-17T02:24:50.594Z,10.10
2019-05-17T02:27:24.268Z,10.10
2019-05-17T02:29:53.764Z,10.10
2019-05-17T02:32:24.220Z,10.10
2019-05-17T02:34:55.732Z,10.10
2019-05-17T02:37:26.200Z,10.10
2019-05-17T02:40:02.708Z,10.10
2019-05-17T02:42:29.028Z,10.00
2019-05-17T02:45:02.655Z,10.10
2019-05-17T02:47:33.601Z,10.00
2019-05-17T02:50:05.405Z,10.10
2019-05-17T02:52:37.262Z,10.10
2019-05-17T02:55:12.457Z,10.00
2019-05-17T02:57:43.359Z,10.00
2019-05-17T03:00:14.339Z,10.10
2019-05-17T03:02:44.802Z,10.10
2019-05-17T03:05:15.630Z,10.00
2019-05-17T03:07:46.097Z,10.00
2019-05-17T03:10:24.138Z,10.00
2019-05-17T03:12:48.810Z,10.10
2019-05-17T03:15:19.261Z,10.00
2019-05-17T03:17:49.727Z,10.00
2019-05-17T03:20:22.987Z,10.00
2019-05-17T03:22:52.704Z,9.90
2019-05-17T03:25:23.880Z,9.90
2019-05-17T03:27:54.481Z,9.90
2019-05-17T03:30:26.194Z,9.90
2019-05-17T03:32:57.301Z,10.00
2019-05-17T03:35:28.030Z,9.90
2019-05-17T03:37:58.485Z,9.90
2019-05-17T03:41:01.402Z,9.90
2019-05-17T03:43:02.967Z,10.00
2019-05-17T03:45:34.205Z,9.90
2019-05-17T03:48:05.368Z,10.00
2019-05-17T03:50:35.922Z,10.00
2019-05-17T03:53:06.370Z,9.90
2019-05-17T03:55:36.730Z,10.00
2019-05-17T03:58:15.397Z,10.00
2019-05-17T04:00:45.749Z,10.00
2019-05-17T04:03:16.202Z,10.00
2019-05-17T04:05:46.643Z,9.90
2019-05-17T04:08:16.918Z,9.90
2019-05-17T04:10:47.378Z,9.90
2019-05-17T04:13:17.786Z,10.00
2019-05-17T04:15:48.170Z,10.00
2019-05-17T04:18:18.588Z,9.90
2019-05-17T04:20:49.046Z,10.00
2019-05-17T04:23:23.012Z,10.00
2019-05-17T04:25:53.157Z,10.10
2019-05-17T04:28:23.790Z,10.00
2019-05-17T04:30:54.174Z,10.00
2019-05-17T04:33:24.530Z,10.10
2019-05-17T04:35:54.932Z,10.10
2019-05-17T04:38:25.198Z,10.10
2019-05-17T04:40:55.959Z,10.10
2019-05-17T04:43:26.392Z,10.20
2019-05-17T04:45:56.777Z,10.30
2019-05-17T04:48:27.147Z,10.30
2019-05-17T04:50:57.574Z,10.30
2019-05-17T04:53:28.430Z,10.30
2019-05-17T04:55:58.870Z,10.30
2019-05-17T04:58:29.261Z,10.40
2019-05-17T05:00:59.698Z,10.40
2019-05-17T05:03:32.670Z,10.40
2019-05-17T05:06:03.381Z,10.50
2019-05-17T05:08:33.825Z,10.50
2019-05-17T05:11:04.444Z,10.60
2019-05-17T05:13:34.914Z,10.60
2019-05-17T05:16:05.238Z,10.60
2019-05-17T05:18:36.079Z,10.70
2019-05-17T05:21:06.509Z,10.70
2019-05-17T05:23:36.881Z,10.70
2019-05-17T05:26:07.249Z,10.70
2019-05-17T05:28:37.678Z,10.80
2019-05-17T05:31:08.057Z,10.80
2019-05-17T05:33:38.405Z,10.90
2019-05-17T05:36:08.818Z,11.00
2019-05-17T05:38:39.305Z,11.00
2019-05-17T05:41:12.066Z,11.10
2019-05-17T05:43:42.021Z,11.20
2019-05-17T05:46:12.549Z,11.20
2019-05-17T05:48:42.998Z,11.30
2019-05-17T05:51:13.886Z,11.30
2019-05-17T05:53:44.306Z,11.30
2019-05-17T05:56:14.993Z,11.30
2019-05-17T05:58:45.453Z,11.40
2019-05-17T06:01:15.758Z,11.30
2019-05-17T06:03:46.063Z,11.30
2019-05-17T06:06:16.432Z,11.20
2019-05-17T06:08:46.746Z,11.40
2019-05-17T06:11:18.242Z,11.40
2019-05-17T06:13:48.682Z,11.60
2019-05-17T06:16:19.062Z,11.50
2019-05-17T06:18:51.538Z,11.50
2019-05-17T06:21:22.642Z,11.50
2019-05-17T06:23:53.186Z,11.50
2019-05-17T06:26:23.874Z,11.40
2019-05-17T06:28:54.313Z,11.60
2019-05-17T06:31:24.738Z,11.70
2019-05-17T06:33:55.090Z,11.70
2019-05-17T06:36:25.534Z,11.70
2019-05-17T06:38:55.910Z,11.80
2019-05-17T06:41:26.310Z,12.00
2019-05-17T06:43:56.661Z,12.20
2019-05-17T06:46:27.070Z,12.30
2019-05-17T06:48:57.435Z,12.30
2019-05-17T06:51:27.845Z,12.50
2019-05-17T06:53:58.153Z,12.50
2019-05-17T06:56:28.522Z,12.60
2019-05-17T06:58:58.893Z,12.60
2019-05-17T07:01:29.306Z,12.80
2019-05-17T07:04:00.282Z,13.00
2019-05-17T07:06:32.742Z,12.90
2019-05-17T07:09:04.222Z,13.10
2019-05-17T07:11:34.714Z,12.90
2019-05-17T07:14:05.153Z,12.90
2019-05-17T07:16:35.434Z,13.10
2019-05-17T07:19:05.850Z,13.00
2019-05-17T07:21:36.193Z,13.00
2019-05-17T07:24:06.553Z,12.90
2019-05-17T07:26:39.231Z,12.80
2019-05-17T07:29:10.211Z,12.90
2019-05-17T07:31:40.657Z,13.20
2019-05-17T07:34:10.998Z,13.10
2019-05-17T07:36:41.321Z,13.00
2019-05-17T07:39:11.745Z,13.20
2019-05-17T07:41:42.110Z,13.40
2019-05-17T07:44:12.470Z,13.30
2019-05-17T07:46:42.889Z,13.10
2019-05-17T07:49:13.249Z,13.20
2019-05-17T07:51:43.597Z,13.20
2019-05-17T07:54:14.030Z,13.20
2019-05-17T07:56:44.443Z,13.30
2019-05-17T07:59:14.728Z,13.10
2019-05-17T08:01:45.178Z,13.20
2019-05-17T08:04:15.574Z,13.30
2019-05-17T08:06:45.930Z,13.10
2019-05-17T08:09:17.268Z,12.80
2019-05-17T08:11:50.047Z,12.80
2019-05-17T08:14:29.289Z,12.70
2019-05-17T08:16:51.724Z,12.70
2019-05-17T08:19:22.139Z,12.70
2019-05-17T08:21:52.520Z,12.60
2019-05-17T08:24:22.853Z,12.70
2019-05-17T08:26:53.462Z,12.70
2019-05-17T08:29:23.850Z,12.60
2019-05-17T08:31:54.194Z,12.50
2019-05-17T08:34:24.538Z,12.40
2019-05-17T08:36:54.904Z,12.50
2019-05-17T08:39:25.157Z,12.50
2019-05-17T08:41:55.470Z,12.60
2019-05-17T08:44:25.890Z,12.50
2019-05-17T08:46:56.163Z,12.60
2019-05-17T08:49:26.582Z,12.70
2019-05-17T08:51:59.337Z,12.70
2019-05-17T08:54:30.434Z,12.80
2019-05-17T08:57:01.307Z,12.90
2019-05-17T08:59:32.550Z,12.80
2019-05-17T09:02:02.836Z,12.80
2019-05-17T09:04:33.182Z,13.00
2019-05-17T09:07:05.662Z,13.30
2019-05-17T09:09:36.108Z,13.60
2019-05-17T09:12:06.514Z,13.80
2019-05-17T09:14:36.976Z,13.90
2019-05-17T09:17:07.263Z,14.00
2019-05-17T09:19:39.493Z,14.30
2019-05-17T09:22:10.495Z,14.40
2019-05-17T09:24:41.095Z,14.10
2019-05-17T09:27:11.567Z,14.00
2019-05-17T09:29:41.955Z,13.70
2019-05-17T09:32:12.318Z,13.50
2019-05-17T09:34:42.598Z,13.40
2019-05-17T09:37:15.699Z,13.60
2019-05-17T09:39:45.099Z,13.80
2019-05-17T09:42:15.459Z,13.70
2019-05-17T09:44:45.846Z,13.80
2019-05-17T09:47:16.122Z,13.70
2019-05-17T09:49:46.518Z,13.60
2019-05-17T09:52:16.867Z,13.50
2019-05-17T09:54:47.146Z,13.30
2019-05-17T09:57:17.505Z,13.30
2019-05-17T09:59:49.594Z,13.30
2019-05-17T10:02:20.480Z,13.30
2019-05-17T10:04:50.886Z,13.30
2019-05-17T10:07:21.231Z,13.30
2019-05-17T10:09:51.834Z,13.30
2019-05-17T10:12:22.266Z,13.30
2019-05-17T10:14:52.659Z,13.20
2019-05-17T10:17:22.955Z,13.10
2019-05-17T10:19:53.390Z,13.00
2019-05-17T10:22:23.866Z,13.00
2019-05-17T10:24:54.319Z,13.00
2019-05-17T10:27:24.730Z,13.20
2019-05-17T10:29:55.182Z,13.40
2019-05-17T10:32:25.445Z,13.70
2019-05-17T10:34:55.880Z,13.50
2019-05-17T10:37:26.210Z,13.50
2019-05-17T10:39:56.622Z,13.70
2019-05-17T10:42:27.035Z,13.70
2019-05-17T10:44:59.767Z,13.80
2019-05-17T10:47:30.114Z,13.90
2019-05-17T10:50:02.270Z,13.80
2019-05-17T10:52:32.644Z,13.80
2019-05-17T10:55:03.052Z,13.90
2019-05-17T10:57:33.477Z,14.00
2019-05-17T11:00:10.334Z,13.80
2019-05-17T11:02:41.235Z,13.90
2019-05-17T11:05:12.204Z,14.00
2019-05-17T11:07:42.647Z,13.90
2019-05-17T11:10:13.677Z,13.70
2019-05-17T11:12:44.097Z,13.90
2019-05-17T11:15:15.051Z,13.90
2019-05-17T11:17:45.458Z,14.00
2019-05-17T11:20:16.052Z,13.80
2019-05-17T11:22:46.375Z,13.80
2019-05-17T11:25:17.243Z,14.00
2019-05-17T11:27:47.790Z,14.20
2019-05-17T11:30:19.419Z,14.20
2019-05-17T11:32:49.783Z,14.20
2019-05-17T11:35:20.166Z,14.10
2019-05-17T11:37:50.547Z,14.00
2019-05-17T11:40:21.175Z,13.90
2019-05-17T11:42:51.567Z,13.90
2019-05-17T11:45:27.571Z,13.90
2019-05-17T11:47:54.235Z,14.10
2019-05-17T11:50:24.638Z,14.20
2019-05-17T11:52:55.011Z,14.20
2019-05-17T11:55:25.420Z,14.20
2019-05-17T11:57:55.778Z,14.10
2019-05-17T12:00:26.525Z,14.10
2019-05-17T12:02:56.831Z,13.90
2019-05-17T12:05:27.260Z,13.90
2019-05-17T12:07:57.676Z,13.80
2019-05-17T12:10:28.024Z,13.70
2019-05-17T12:12:58.483Z,13.70
2019-05-17T12:15:43.813Z,13.90
2019-05-17T12:18:01.099Z,13.90
2019-05-17T12:20:31.522Z,14.00
2019-05-17T12:23:03.147Z,14.00
2019-05-17T12:25:33.547Z,13.90
2019-05-17T12:28:03.980Z,13.70
2019-05-17T12:30:34.403Z,13.70
2019-05-17T12:33:04.824Z,13.70
2019-05-17T12:35:35.183Z,13.70
2019-05-17T12:38:05.584Z,13.80
2019-05-17T12:40:36.010Z,13.70
2019-05-17T12:43:06.279Z,13.90
2019-05-17T12:45:36.635Z,13.90
2019-05-17T12:48:06.979Z,13.70
2019-05-17T12:50:37.447Z,13.60
2019-05-17T12:53:07.817Z,13.60
2019-05-17T12:55:38.183Z,13.70
2019-05-17T12:58:08.556Z,13.90
2019-05-17T13:00:38.928Z,14.00
2019-05-17T13:03:09.312Z,14.00
2019-05-17T13:05:39.742Z,14.00
2019-05-17T13:08:10.081Z,14.20
2019-05-17T13:10:40.425Z,14.20
2019-05-17T13:13:10.832Z,14.30
2019-05-17T13:15:41.201Z,14.20
2019-05-17T13:18:11.545Z,14.20
2019-05-17T13:20:41.918Z,14.10
2019-05-17T13:23:12.514Z,14.00
2019-05-17T13:25:42.772Z,13.90
2019-05-17T13:28:13.202Z,13.90
2019-05-17T13:30:43.547Z,13.80
2019-05-17T13:33:13.903Z,13.70
2019-05-17T13:35:45.292Z,13.80
2019-05-17T13:38:15.553Z,13.80
2019-05-17T13:40:46.128Z,13.80
2019-05-17T13:43:16.597Z,13.80
2019-05-17T13:45:47.025Z,13.90
2019-05-17T13:48:17.377Z,13.80
2019-05-17T13:50:51.634Z,13.70
2019-05-17T13:53:20.316Z,13.70
2019-05-17T13:55:50.660Z,13.60
2019-05-17T13:58:21.165Z,13.50
2019-05-17T14:00:51.531Z,13.30
2019-05-17T14:03:21.914Z,13.20
2019-05-17T14:05:52.339Z,13.30
2019-05-17T14:08:22.749Z,13.20
2019-05-17T14:10:53.117Z,13.20
2019-05-17T14:13:23.969Z,13.20
2019-05-17T14:15:54.402Z,13.10
2019-05-17T14:18:24.748Z,13.00
2019-05-17T14:20:55.076Z,13.00
2019-05-17T14:23:25.591Z,13.00
2019-05-17T14:25:56.027Z,13.00
2019-05-17T14:28:26.428Z,13.00
2019-05-17T14:30:56.789Z,12.90
2019-05-17T14:33:27.123Z,12.90
2019-05-17T14:35:57.545Z,12.90
2019-05-17T14:38:27.941Z,12.90
2019-05-17T14:41:06.307Z,13.00
2019-05-17T14:43:31.742Z,12.90
2019-05-17T14:46:03.430Z,13.00
2019-05-17T14:48:33.740Z,12.90
2019-05-17T14:51:04.180Z,12.80
2019-05-17T14:53:35.515Z,12.80
2019-05-17T14:56:05.954Z,12.90
2019-05-17T14:58:36.209Z,12.90
2019-05-17T15:01:06.643Z,12.80
2019-05-17T15:03:36.973Z,12.80
2019-05-17T15:06:07.394Z,12.90
2019-05-17T15:08:37.756Z,12.80
2019-05-17T15:11:08.141Z,12.90
2019-05-17T15:13:38.893Z,13.10
2019-05-17T15:16:09.360Z,13.10
2019-05-17T15:18:39.705Z,13.00
2019-05-17T15:21:10.087Z,13.00
2019-05-17T15:23:40.437Z,13.20
2019-05-17T15:26:10.837Z,13.40
2019-05-17T15:28:41.216Z,13.40
2019-05-17T15:31:11.580Z,13.40
2019-05-17T15:33:41.866Z,13.40
2019-05-17T15:36:12.224Z,13.40
2019-05-17T15:38:42.497Z,13.30
2019-05-17T15:41:12.801Z,13.20
2019-05-17T15:43:43.114Z,13.20
2019-05-17T15:46:13.520Z,13.20
2019-05-17T15:48:43.877Z,13.10
2019-05-17T15:51:14.293Z,13.10
2019-05-17T15:53:44.633Z,13.10
2019-05-17T15:56:14.900Z,13.20
2019-05-17T15:58:46.332Z,13.20
2019-05-17T16:01:16.740Z,13.30
2019-05-17T16:03:47.164Z,13.40
2019-05-17T16:06:17.582Z,13.40
2019-05-17T16:08:48.445Z,13.50
2019-05-17T16:11:18.704Z,13.30
2019-05-17T16:13:49.260Z,13.50
2019-05-17T16:16:19.692Z,13.40
2019-05-17T16:18:51.001Z,13.30
2019-05-17T16:21:21.429Z,13.30
2019-05-17T16:23:51.772Z,13.30
2019-05-17T16:26:22.178Z,13.30
2019-05-17T16:28:52.613Z,13.30
2019-05-17T16:31:22.932Z,13.30
2019-05-17T16:33:53.368Z,13.20
2019-05-17T16:36:23.712Z,13.30
2019-05-17T16:38:54.076Z,13.10
2019-05-17T16:41:24.445Z,13.10
2019-05-17T16:43:54.804Z,13.10
2019-05-17T16:46:25.123Z,13.10
2019-05-17T16:48:55.509Z,13.10
2019-05-17T16:51:25.844Z,13.10
2019-05-17T16:53:56.185Z,13.20
2019-05-17T16:56:26.513Z,13.10
2019-05-17T16:58:57.004Z,13.10
2019-05-17T17:01:27.421Z,13.10
2019-05-17T17:03:57.881Z,13.10
2019-05-17T17:06:28.275Z,13.00
2019-05-17T17:08:58.720Z,13.20
2019-05-17T17:11:29.128Z,13.10
2019-05-17T17:13:59.475Z,13.10
2019-05-17T17:16:29.768Z,13.10
2019-05-17T17:19:00.032Z,13.00
2019-05-17T17:21:30.404Z,13.00
2019-05-17T17:24:00.737Z,13.00
2019-05-17T17:26:31.193Z,13.00
2019-05-17T17:29:01.544Z,13.00
2019-05-17T17:31:32.007Z,13.00
2019-05-17T17:34:02.513Z,12.90
2019-05-17T17:36:32.987Z,12.80
2019-05-17T17:39:05.817Z,12.90
2019-05-17T17:41:36.185Z,12.80
2019-05-17T17:44:06.714Z,12.90
2019-05-17T17:46:37.057Z,12.80
2019-05-17T17:49:07.492Z,12.80
2019-05-17T17:51:37.966Z,12.80
2019-05-17T17:54:08.409Z,12.80
2019-05-17T17:56:38.773Z,12.80
2019-05-17T17:59:09.105Z,12.80
2019-05-17T18:01:39.461Z,12.80
2019-05-17T18:04:09.746Z,12.80
2019-05-17T18:06:40.130Z,12.70
2019-05-17T18:09:10.557Z,12.80
2019-05-17T18:11:41.061Z,12.70
2019-05-17T18:14:13.743Z,12.80
2019-05-17T18:16:43.579Z,12.70
2019-05-17T18:19:13.849Z,12.70
2019-05-17T18:21:44.352Z,12.80
2019-05-17T18:24:14.843Z,12.80
2019-05-17T18:26:45.367Z,12.70
2019-05-17T18:29:15.808Z,12.70
2019-05-17T18:31:46.271Z,12.70
2019-05-17T18:34:16.697Z,12.60
2019-05-17T18:36:47.153Z,12.50
2019-05-17T18:39:17.565Z,12.50
2019-05-17T18:41:48.032Z,12.60
2019-05-17T18:44:27.276Z,12.60
2019-05-17T18:46:50.490Z,12.60
2019-05-17T18:49:20.945Z,12.60
2019-05-17T18:51:51.418Z,12.60
2019-05-17T18:54:21.743Z,12.50
2019-05-17T18:56:52.045Z,12.50
2019-05-17T18:59:22.474Z,12.50
2019-05-17T19:01:52.926Z,12.50
2019-05-17T19:04:23.283Z,12.50
2019-05-17T19:06:54.674Z,12.50
2019-05-17T19:09:25.122Z,12.50
2019-05-17T19:11:55.593Z,12.50
2019-05-17T19:14:26.021Z,12.50
2019-05-17T19:16:56.313Z,12.40
2019-05-17T19:19:26.816Z,12.40
2019-05-17T19:21:57.299Z,12.40
2019-05-17T19:24:27.946Z,12.40
2019-05-17T19:26:58.314Z,12.40
2019-05-17T19:29:28.740Z,12.30
2019-05-17T19:31:59.026Z,12.30
2019-05-17T19:34:29.413Z,12.20
2019-05-17T19:36:59.703Z,12.10
2019-05-17T19:39:30.046Z,12.10
2019-05-17T19:42:00.472Z,12.10
2019-05-17T19:44:30.882Z,12.10
2019-05-17T19:47:01.255Z,12.10
2019-05-17T19:49:31.734Z,12.10
2019-05-17T19:52:02.099Z,12.10
2019-05-17T19:54:32.474Z,12.10
2019-05-17T19:57:02.754Z,12.20
2019-05-17T19:59:33.070Z,12.20
2019-05-17T20:02:06.399Z,12.20
2019-05-17T20:04:35.583Z,12.20
2019-05-17T20:07:06.171Z,12.20
2019-05-17T20:09:36.562Z,12.20
2019-05-17T20:12:07.006Z,12.30
2019-05-17T20:14:37.354Z,12.20
2019-05-17T20:17:07.719Z,12.10
2019-05-17T20:19:38.122Z,12.10
2019-05-17T20:22:08.485Z,12.10
2019-05-17T20:24:38.824Z,12.10
2019-05-17T20:27:09.278Z,12.20
2019-05-17T20:29:39.588Z,12.20
2019-05-17T20:32:09.947Z,12.20
2019-05-17T20:34:40.326Z,12.30
2019-05-17T20:37:10.695Z,12.30
2019-05-17T20:39:42.041Z,12.20
2019-05-17T20:42:12.446Z,12.20
2019-05-17T20:44:42.970Z,12.20
2019-05-17T20:47:14.290Z,12.10
2019-05-17T20:49:44.583Z,12.10
2019-05-17T20:52:15.326Z,12.00
2019-05-17T20:54:47.171Z,12.10
2019-05-17T20:57:17.587Z,11.90
2019-05-17T20:59:47.883Z,11.90
2019-05-17T21:02:18.234Z,11.90
2019-05-17T21:04:48.548Z,11.90
2019-05-17T21:07:18.887Z,11.90
2019-05-17T21:09:49.191Z,12.00
2019-05-17T21:12:20.527Z,12.00
2019-05-17T21:14:50.801Z,11.90
2019-05-17T21:17:21.075Z,11.90
2019-05-17T21:19:51.415Z,11.90
2019-05-17T21:22:21.679Z,11.90
2019-05-17T21:24:52.038Z,11.80
2019-05-17T21:27:22.394Z,11.90
2019-05-17T21:29:52.671Z,11.90
2019-05-17T21:32:23.031Z,12.00
2019-05-17T21:34:53.394Z,12.00
2019-05-17T21:37:23.768Z,12.00
2019-05-17T21:39:54.079Z,11.90
2019-05-17T21:42:24.406Z,11.90
2019-05-17T21:44:54.747Z,11.90
2019-05-17T21:47:25.083Z,11.90
2019-05-17T21:49:55.350Z,12.00
2019-05-17T21:52:25.684Z,12.00
2019-05-17T21:54:56.120Z,12.00
2019-05-17T21:57:26.498Z,12.00
2019-05-17T21:59:56.791Z,12.00
2019-05-17T22:02:27.283Z,12.10
2019-05-17T22:04:57.639Z,12.10
2019-05-17T22:07:28.088Z,12.10
2019-05-17T22:09:58.355Z,12.00
2019-05-17T22:12:28.635Z,12.00
2019-05-17T22:14:58.918Z,11.90
2019-05-17T22:17:29.287Z,12.00
2019-05-17T22:20:00.588Z,11.90
2019-05-17T22:22:30.870Z,11.90
2019-05-17T22:25:01.151Z,11.90
2019-05-17T22:27:31.438Z,11.90
2019-05-17T22:30:01.794Z,11.80
2019-05-17T22:32:32.067Z,11.80
2019-05-17T22:35:02.346Z,11.80
2019-05-17T22:37:32.667Z,11.80
2019-05-17T22:40:03.094Z,11.70
2019-05-17T22:42:34.243Z,11.80
2019-05-17T22:45:04.895Z,11.80
2019-05-17T22:47:35.243Z,11.70
2019-05-17T22:50:05.827Z,11.70
2019-05-17T22:52:36.116Z,11.70
2019-05-17T22:55:06.651Z,11.60
2019-05-17T22:57:36.959Z,11.50
2019-05-17T23:00:09.053Z,11.50
2019-05-17T23:02:41.018Z,11.60
2019-05-17T23:05:11.471Z,11.60
2019-05-17T23:07:41.771Z,11.50
2019-05-17T23:10:12.286Z,11.50
2019-05-17T23:12:42.567Z,11.60
2019-05-17T23:15:13.407Z,11.60
2019-05-17T23:17:43.703Z,11.60
2019-05-17T23:20:14.211Z,11.50
2019-05-17T23:22:44.588Z,11.50
2019-05-17T23:25:15.011Z,11.50
2019-05-17T23:27:45.267Z,11.40
2019-05-17T23:30:15.791Z,11.30
2019-05-17T23:32:46.142Z,11.30
2019-05-17T23:35:16.495Z,11.20
2019-05-17T23:37:46.869Z,11.20
2019-05-17T23:40:17.439Z,11.20
2019-05-17T23:42:47.774Z,11.20
2019-05-17T23:45:18.064Z,11.20
2019-05-17T23:47:48.326Z,11.10
2019-05-17T23:50:18.758Z,11.10
2019-05-17T23:52:49.055Z,11.10
2019-05-17T23:55:19.492Z,11.00
2019-05-17T23:57:49.769Z,11.00
